Tetide — IVTN — position and weather

sailwx.info

Track history (hours):
 
Tides and Currents Weather Stations Pressure Air Temp Water Temp Dewpoint Dewpoint Depression Visibility Wind Speed Wind Dir Waves Ship Positions

Tetide

Last reported at 2015-Aug-01 10:07 UTC. Time now 2015-Aug-01 11:46 UTC.
Position N 40°48' E 013°26'.

Length 70 m; draft 3.6 m.

Type: Passenger vessel. MMSI: 247043100.

Date/timePositionNaut miles runAvg speedWind from/ knotsBaromVisibWave heightAir tempDewpointWater temp
2015-Aug-01 10:07N 40°48' E 013°26'0 0.0
2015-Aug-01 09:28N 40°48' E 013°26'29 2.3
2015-Jul-31 21:05N 41°15' E 013°37'0 0.0
2015-Jul-31 20:33N 41°15' E 013°37'0 0.0
2015-Jul-31 19:33N 41°15' E 013°37'0 0.0
2015-Jul-31 18:33N 41°15' E 013°37'0 0.4
2015-Jul-31 17:33N 41°15' E 013°37'1413.9
2015-Jul-31 16:34N 41°02' E 013°32'1414.2
2015-Jul-31 15:33N 40°48' E 013°26'0 0.1
2015-Jul-31 13:09N 40°48' E 013°26'0 0.0
2015-Jul-31 09:29N 40°48' E 013°26'1212.9
2015-Jul-31 08:33N 40°60' E 013°30'16 1.4
2015-Jul-30 21:04N 41°15' E 013°37'0 0.0
2015-Jul-30 20:33N 41°15' E 013°37'0 0.0
2015-Jul-30 19:33N 41°15' E 013°37'0 0.0
2015-Jul-30 18:33N 41°15' E 013°37'19 8.2
2015-Jul-30 16:12N 40°57' E 013°30'5 0.7
2015-Jul-30 09:15N 40°52' E 013°27'1013.7
2015-Jul-30 08:31N 41°02' E 013°31'1313.8
2015-Jul-30 07:33N 41°14' E 013°37'1 0.9
2015-Jul-30 06:32N 41°15' E 013°37'0 0.0
2015-Jul-30 05:34N 41°15' E 013°37'0 0.0
2015-Jul-30 04:33N 41°15' E 013°37'0 0.0
2015-Jul-30 03:33N 41°15' E 013°37'0 0.0
2015-Jul-30 02:26N 41°15' E 013°37'0 0.0
2015-Jul-29 23:32N 41°15' E 013°37'0 0.0
2015-Jul-29 22:33N 41°15' E 013°37'0 0.0
2015-Jul-29 21:32N 41°15' E 013°37'0 0.0
2015-Jul-29 18:28N 41°15' E 013°37'1 1.6
2015-Jul-29 17:33N 41°14' E 013°37'1413.6
2015-Jul-29 16:30N 41°00' E 013°32'1 0.0
2015-Jul-28 16:29N 41°01' E 013°32'1313.9
2015-Jul-28 15:33N 40°49' E 013°26'13 0.6
2015-Jul-27 16:32N 41°02' E 013°32'14 0.7
2015-Jul-26 19:24N 41°15' E 013°37'17 5.6
2015-Jul-26 16:26N 40°59' E 013°31'5 0.8
2015-Jul-26 10:28N 40°55' E 013°29'6 0.2
2015-Jul-25 08:29N 41°01' E 013°31'5 0.3
2015-Jul-24 16:06N 40°56' E 013°29'8 2.1
2015-Jul-24 12:07N 40°48' E 013°26'0 0.0
2015-Jul-24 11:32N 40°48' E 013°26'0 0.0
2015-Jul-24 10:32N 40°48' E 013°26'0 0.0
2015-Jul-24 09:31N 40°48' E 013°26'1111.6
2015-Jul-24 08:34N 40°59' E 013°30'1514.5
2015-Jul-24 07:33N 41°13' E 013°36'3 2.7
2015-Jul-24 06:33N 41°15' E 013°37'0 0.0
2015-Jul-24 05:32N 41°15' E 013°37'29 1.9
2015-Jul-23 14:33N 40°48' E 013°26'  
Track history (hours):
 
Tides and Currents Weather Stations Pressure Air Temp Water Temp Dewpoint Dewpoint Depression Visibility Wind Speed Wind Dir Waves Ship Positions

Tetide

Last reported at 2015-Aug-01 10:07 UTC. Time now 2015-Aug-01 11:46 UTC.
Position N 40°48' E 013°26'.

Length 70 m; draft 3.6 m.

Type: Passenger vessel. MMSI: 247043100.

Date/timePositionNaut miles runAvg speedWind from/ knotsBaromVisibWave heightAir tempDewpointWater temp
2015-Aug-01 10:07N 40°48' E 013°26'0 0.0
2015-Aug-01 09:28N 40°48' E 013°26'29 2.3
2015-Jul-31 21:05N 41°15' E 013°37'0 0.0
2015-Jul-31 20:33N 41°15' E 013°37'0 0.0
2015-Jul-31 19:33N 41°15' E 013°37'0 0.0
2015-Jul-31 18:33N 41°15' E 013°37'0 0.4
2015-Jul-31 17:33N 41°15' E 013°37'1413.9
2015-Jul-31 16:34N 41°02' E 013°32'1414.2
2015-Jul-31 15:33N 40°48' E 013°26'0 0.1
2015-Jul-31 13:09N 40°48' E 013°26'0 0.0
2015-Jul-31 09:29N 40°48' E 013°26'1212.9
2015-Jul-31 08:33N 40°60' E 013°30'16 1.4
2015-Jul-30 21:04N 41°15' E 013°37'0 0.0
2015-Jul-30 20:33N 41°15' E 013°37'0 0.0
2015-Jul-30 19:33N 41°15' E 013°37'0 0.0
2015-Jul-30 18:33N 41°15' E 013°37'19 8.2
2015-Jul-30 16:12N 40°57' E 013°30'5 0.7
2015-Jul-30 09:15N 40°52' E 013°27'1013.7
2015-Jul-30 08:31N 41°02' E 013°31'1313.8
2015-Jul-30 07:33N 41°14' E 013°37'1 0.9
2015-Jul-30 06:32N 41°15' E 013°37'0 0.0
2015-Jul-30 05:34N 41°15' E 013°37'0 0.0
2015-Jul-30 04:33N 41°15' E 013°37'0 0.0
2015-Jul-30 03:33N 41°15' E 013°37'0 0.0
2015-Jul-30 02:26N 41°15' E 013°37'0 0.0
2015-Jul-29 23:32N 41°15' E 013°37'0 0.0
2015-Jul-29 22:33N 41°15' E 013°37'0 0.0
2015-Jul-29 21:32N 41°15' E 013°37'0 0.0
2015-Jul-29 18:28N 41°15' E 013°37'1 1.6
2015-Jul-29 17:33N 41°14' E 013°37'1413.6
2015-Jul-29 16:30N 41°00' E 013°32'1 0.0
2015-Jul-28 16:29N 41°01' E 013°32'1313.9
2015-Jul-28 15:33N 40°49' E 013°26'13 0.6
2015-Jul-27 16:32N 41°02' E 013°32'14 0.7
2015-Jul-26 19:24N 41°15' E 013°37'17 5.6
2015-Jul-26 16:26N 40°59' E 013°31'5 0.8
2015-Jul-26 10:28N 40°55' E 013°29'6 0.2
2015-Jul-25 08:29N 41°01' E 013°31'5 0.3
2015-Jul-24 16:06N 40°56' E 013°29'8 2.1
2015-Jul-24 12:07N 40°48' E 013°26'0 0.0
2015-Jul-24 11:32N 40°48' E 013°26'0 0.0
2015-Jul-24 10:32N 40°48' E 013°26'0 0.0
2015-Jul-24 09:31N 40°48' E 013°26'1111.6
2015-Jul-24 08:34N 40°59' E 013°30'1514.5
2015-Jul-24 07:33N 41°13' E 013°36'3 2.7
2015-Jul-24 06:33N 41°15' E 013°37'0 0.0
2015-Jul-24 05:32N 41°15' E 013°37'29 1.9
2015-Jul-23 14:33N 40°48' E 013°26'  

Dump ship's entire track history